Time;durP1;ratioP1;P1;durP2;ratioP2;P2;SDS_P1;SDS_P2;PMS_P1;PMS_P2;Temp;Humidity;BMP_temperature;BMP_pressure;BME280_temperature;BME280_humidity;BME280_pressure;Samples;Min_cycle;Max_cycle;Signal;HPM_P1;HPM_P2
2024/04/08 00:00:31;;;;;;;59.00;3.50;;;;;;;;;;5074431;28;20843;-73
2024/04/08 00:02:58;;;;;;;62.83;4.73;;;;;;;;;;5074465;28;20444;-73
2024/04/08 00:05:25;;;;;;;62.90;3.90;;;;;;;;;;5074586;28;20476;-73
2024/04/08 00:07:52;;;;;;;63.37;4.30;;;;;;;;;;5074416;28;20444;-73
2024/04/08 00:10:19;;;;;;;62.10;3.93;;;;;;;;;;5073561;28;20478;-71
2024/04/08 00:12:46;;;;;;;60.90;5.73;;;;;;;;;;5073482;28;20498;-73
2024/04/08 00:15:13;;;;;;;60.20;4.20;;;;;;;;;;5073981;28;20539;-73
2024/04/08 00:17:43;;;;;;;59.97;3.87;;;;;;;;;;5073901;28;20547;-74
2024/04/08 00:20:10;;;;;;;58.27;3.90;;;;;;;;;;5073862;28;20452;-74
2024/04/08 00:22:38;;;;;;;63.57;4.17;;;;;;;;;;5073483;28;20907;-73
2024/04/08 00:25:04;;;;;;;63.00;3.73;;;;;;;;;;5073408;28;20448;-74
2024/04/08 00:27:31;;;;;;;58.23;4.10;;;;;;;;;;5073877;28;20858;-74
2024/04/08 00:29:57;;;;;;;82.93;5.10;;;;;;;;;;5073223;28;20476;-74
2024/04/08 00:32:24;;;;;;;61.80;3.70;;;;;;;;;;5072615;28;20570;-74
2024/04/08 00:34:52;;;;;;;66.20;4.27;;;;;;;;;;5073261;28;20455;-73
2024/04/08 00:37:19;;;;;;;59.00;3.60;;;;;;;;;;5073453;28;20451;-74
2024/04/08 00:39:45;;;;;;;62.23;4.30;;;;;;;;;;5073831;28;20499;-73
2024/04/08 00:42:12;;;;;;;58.27;3.67;;;;;;;;;;5073153;28;20483;-73
2024/04/08 00:44:38;;;;;;;59.00;4.47;;;;;;;;;;5073700;28;20458;-74
2024/04/08 00:47:05;;;;;;;61.50;4.57;;;;;;;;;;5073240;28;20535;-74
2024/04/08 00:49:32;;;;;;;60.30;4.07;;;;;;;;;;5073137;28;20998;-73
2024/04/08 00:52:01;;;;;;;60.80;4.20;;;;;;;;;;5072928;28;20444;-74
2024/04/08 00:54:29;;;;;;;59.27;3.23;;;;;;;;;;5072828;28;20451;-73
2024/04/08 00:56:57;;;;;;;62.00;4.53;;;;;;;;;;5073154;28;20454;-74
2024/04/08 00:59:25;;;;;;;63.53;4.57;;;;;;;;;;5073587;28;20836;-74
2024/04/08 01:01:52;;;;;;;58.97;3.67;;;;;;;;;;5072671;28;20475;-74
2024/04/08 01:04:18;;;;;;;60.37;3.87;;;;;;;;;;5072846;28;20959;-74
2024/04/08 01:06:45;;;;;;;63.83;4.07;;;;;;;;;;5073321;28;20745;-74
2024/04/08 01:09:12;;;;;;;60.33;3.80;;;;;;;;;;5073380;28;20468;-74
2024/04/08 01:11:40;;;;;;;61.90;4.67;;;;;;;;;;5072499;28;20447;-72
2024/04/08 01:14:06;;;;;;;66.03;4.10;;;;;;;;;;5072652;28;20487;-74
2024/04/08 01:16:33;;;;;;;60.37;4.10;;;;;;;;;;5072943;28;20892;-74
2024/04/08 01:19:00;;;;;;;61.90;5.10;;;;;;;;;;5073324;28;20476;-73
2024/04/08 01:21:27;;;;;;;60.10;3.50;;;;;;;;;;5072693;28;20538;-73
2024/04/08 01:23:55;;;;;;;66.63;5.00;;;;;;;;;;5072934;28;20444;-74
2024/04/08 01:26:22;;;;;;;60.17;3.60;;;;;;;;;;5076869;28;20820;-74
2024/04/08 01:28:50;;;;;;;61.40;4.00;;;;;;;;;;5077031;28;20468;-74
2024/04/08 01:31:17;;;;;;;60.27;4.00;;;;;;;;;;5076561;28;20473;-73
2024/04/08 01:33:43;;;;;;;70.07;4.67;;;;;;;;;;5076138;28;20488;-74
2024/04/08 01:36:11;;;;;;;60.37;3.80;;;;;;;;;;5076521;28;20500;-74
2024/04/08 01:38:39;;;;;;;66.40;4.60;;;;;;;;;;5076848;28;20833;-74
2024/04/08 01:41:08;;;;;;;64.40;4.20;;;;;;;;;;5075649;28;20443;-73
2024/04/08 01:43:34;;;;;;;60.77;3.87;;;;;;;;;;5076177;28;20451;-74
2024/04/08 01:46:01;;;;;;;61.10;4.60;;;;;;;;;;5076681;28;20448;-73
2024/04/08 01:48:27;;;;;;;60.10;3.90;;;;;;;;;;5074712;28;20468;-74
2024/04/08 01:50:54;;;;;;;62.50;4.63;;;;;;;;;;5075121;28;20452;-74
2024/04/08 01:53:20;;;;;;;60.67;4.47;;;;;;;;;;5075891;28;20523;-74
2024/04/08 01:55:48;;;;;;;64.60;4.07;;;;;;;;;;5076543;28;20521;-74
2024/04/08 01:58:15;;;;;;;60.67;4.20;;;;;;;;;;5076188;28;20463;-74
2024/04/08 02:00:42;;;;;;;61.93;5.03;;;;;;;;;;5075225;28;20459;-74
2024/04/08 02:03:08;;;;;;;61.43;4.30;;;;;;;;;;5076520;28;20525;-74
2024/04/08 02:05:35;;;;;;;64.40;5.27;;;;;;;;;;5076554;28;20828;-73
2024/04/08 02:08:02;;;;;;;60.00;4.00;;;;;;;;;;5076116;28;20551;-74
2024/04/08 02:10:29;;;;;;;60.00;4.00;;;;;;;;;;5075194;28;20555;-74
2024/04/08 02:12:55;;;;;;;60.63;4.40;;;;;;;;;;5075743;28;20479;-71
2024/04/08 02:15:23;;;;;;;64.90;4.50;;;;;;;;;;5076033;28;21020;-71
2024/04/08 02:17:49;;;;;;;60.30;4.03;;;;;;;;;;5075892;28;20451;-71
2024/04/08 02:20:16;;;;;;;60.20;4.90;;;;;;;;;;5075611;28;20554;-71
2024/04/08 02:22:42;;;;;;;62.43;4.43;;;;;;;;;;5074207;28;20448;-71
2024/04/08 02:25:10;;;;;;;70.43;4.70;;;;;;;;;;5074780;28;20739;-74
2024/04/08 02:27:36;;;;;;;61.10;4.30;;;;;;;;;;5075068;28;20448;-74
2024/04/08 02:30:05;;;;;;;60.50;4.30;;;;;;;;;;5074900;28;20963;-74
2024/04/08 02:32:33;;;;;;;60.73;3.83;;;;;;;;;;5074499;28;20479;-74
2024/04/08 02:35:00;;;;;;;62.87;4.33;;;;;;;;;;5074639;28;20874;-74
2024/04/08 02:37:26;;;;;;;61.90;5.37;;;;;;;;;;5075610;28;20444;-74
2024/04/08 02:39:53;;;;;;;61.10;4.50;;;;;;;;;;5075316;28;20917;-74
2024/04/08 02:42:19;;;;;;;61.10;4.20;;;;;;;;;;5074533;28;20808;-74
2024/04/08 02:44:46;;;;;;;62.83;4.53;;;;;;;;;;5075371;28;20952;-74
2024/04/08 02:47:12;;;;;;;64.87;4.50;;;;;;;;;;5075558;28;20527;-74
2024/04/08 02:49:41;;;;;;;65.17;4.60;;;;;;;;;;5075123;28;20463;-74
2024/04/08 02:52:07;;;;;;;66.40;4.90;;;;;;;;;;5055662;28;20453;-74
2024/04/08 02:54:34;;;;;;;64.10;4.43;;;;;;;;;;5054750;28;20445;-74
2024/04/08 02:57:00;;;;;;;58.27;4.07;;;;;;;;;;5054827;28;20516;-74
2024/04/08 02:59:27;;;;;;;62.20;4.63;;;;;;;;;;5054487;28;20966;-74
2024/04/08 03:01:53;;;;;;;60.87;4.40;;;;;;;;;;5054682;28;20536;-74
2024/04/08 03:04:20;;;;;;;59.70;4.07;;;;;;;;;;5054766;28;20452;-73
2024/04/08 03:06:48;;;;;;;69.37;4.43;;;;;;;;;;5054744;28;20449;-74
2024/04/08 03:09:15;;;;;;;60.50;5.83;;;;;;;;;;5053816;28;20523;-74
2024/04/08 03:11:41;;;;;;;65.37;4.60;;;;;;;;;;5053899;28;20457;-74
2024/04/08 03:14:08;;;;;;;63.20;4.40;;;;;;;;;;5054031;28;20512;-74
2024/04/08 03:16:34;;;;;;;63.20;4.30;;;;;;;;;;5054625;28;20449;-74
2024/04/08 03:19:01;;;;;;;62.53;4.40;;;;;;;;;;5054572;28;20503;-74
2024/04/08 03:21:28;;;;;;;60.30;4.93;;;;;;;;;;5053946;28;20944;-74
2024/04/08 03:23:57;;;;;;;60.40;3.80;;;;;;;;;;5054274;28;20451;-75
2024/04/08 03:26:23;;;;;;;59.27;3.90;;;;;;;;;;5054283;28;20456;-74
2024/04/08 03:28:51;;;;;;;60.50;4.40;;;;;;;;;;5054400;28;20465;-74
2024/04/08 03:31:17;;;;;;;62.07;4.40;;;;;;;;;;5054299;28;20453;-74
2024/04/08 03:33:44;;;;;;;69.43;4.93;;;;;;;;;;5054344;28;20484;-74
2024/04/08 03:36:11;;;;;;;61.43;4.00;;;;;;;;;;5054834;28;20455;-73
2024/04/08 03:38:38;;;;;;;61.77;4.17;;;;;;;;;;5067752;28;20566;-74
2024/04/08 03:41:07;;;;;;;65.23;5.30;;;;;;;;;;5074585;28;20448;-73
2024/04/08 03:43:33;;;;;;;61.80;4.03;;;;;;;;;;5075553;28;20432;-74
2024/04/08 03:46:01;;;;;;;59.97;3.90;;;;;;;;;;5074949;28;20444;-74
2024/04/08 03:48:29;;;;;;;60.50;4.10;;;;;;;;;;5073835;28;20839;-74
2024/04/08 03:50:55;;;;;;;67.13;4.77;;;;;;;;;;5074036;28;20816;-74
2024/04/08 03:53:22;;;;;;;58.87;4.40;;;;;;;;;;5074173;28;20480;-74
2024/04/08 03:55:48;;;;;;;60.07;4.80;;;;;;;;;;5075068;28;20458;-73
2024/04/08 03:58:17;;;;;;;66.80;5.37;;;;;;;;;;5075446;28;20492;-73
2024/04/08 04:00:43;;;;;;;64.37;5.50;;;;;;;;;;5074935;28;20469;-73
2024/04/08 04:03:10;;;;;;;60.47;4.90;;;;;;;;;;5075443;28;20531;-73
2024/04/08 04:05:36;;;;;;;60.23;4.57;;;;;;;;;;5075355;28;20807;-74
2024/04/08 04:08:03;;;;;;;65.20;5.90;;;;;;;;;;5075934;28;20513;-73
2024/04/08 04:10:29;;;;;;;63.90;4.77;;;;;;;;;;5074907;28;20450;-74
2024/04/08 04:12:57;;;;;;;65.43;5.03;;;;;;;;;;5074428;28;20440;-74
2024/04/08 04:15:24;;;;;;;61.70;4.73;;;;;;;;;;5074373;28;20444;-74
2024/04/08 04:17:51;;;;;;;64.90;5.63;;;;;;;;;;5074692;28;20539;-74
2024/04/08 04:20:22;;;;;;;59.53;4.50;;;;;;;;;;5074794;28;20444;-74
2024/04/08 04:22:49;;;;;;;64.20;5.23;;;;;;;;;;5074087;28;20847;-74
2024/04/08 04:25:15;;;;;;;60.77;4.70;;;;;;;;;;5074447;28;20448;-74
2024/04/08 04:27:42;;;;;;;60.50;4.47;;;;;;;;;;5074396;28;20444;-74
2024/04/08 04:30:09;;;;;;;63.17;4.17;;;;;;;;;;5074314;28;20459;-74
2024/04/08 04:32:37;;;;;;;60.00;4.90;;;;;;;;;;5074180;28;20765;-74
2024/04/08 04:35:04;;;;;;;63.80;4.87;;;;;;;;;;5074450;28;20460;-74
2024/04/08 04:37:31;;;;;;;60.93;5.00;;;;;;;;;;5074667;28;20511;-74
2024/04/08 04:39:57;;;;;;;61.17;4.33;;;;;;;;;;5074907;28;20478;-74
2024/04/08 04:42:24;;;;;;;62.60;5.30;;;;;;;;;;5065935;28;20517;-74
2024/04/08 04:44:51;;;;;;;61.57;4.87;;;;;;;;;;5076393;28;20483;-74
2024/04/08 04:47:18;;;;;;;61.97;5.00;;;;;;;;;;5075813;28;20514;-74
2024/04/08 04:49:46;;;;;;;62.00;4.90;;;;;;;;;;5076325;28;20540;-74
2024/04/08 04:52:13;;;;;;;60.77;4.77;;;;;;;;;;5075830;28;20452;-74
2024/04/08 04:54:40;;;;;;;68.13;5.30;;;;;;;;;;5075844;28;20958;-73
2024/04/08 04:57:07;;;;;;;62.00;3.97;;;;;;;;;;5076390;28;20936;-73
2024/04/08 04:59:33;;;;;;;58.97;4.50;;;;;;;;;;5077313;28;20494;-73
2024/04/08 05:02:00;;;;;;;62.00;5.27;;;;;;;;;;5076294;28;20443;-74
2024/04/08 05:04:26;;;;;;;58.77;4.20;;;;;;;;;;5077462;28;20503;-73
2024/04/08 05:06:54;;;;;;;60.03;5.57;;;;;;;;;;5078293;28;20476;-74
2024/04/08 05:09:20;;;;;;;67.40;4.80;;;;;;;;;;5077742;28;20555;-74
2024/04/08 05:11:48;;;;;;;59.00;4.90;;;;;;;;;;5076859;28;21031;-73
2024/04/08 05:14:14;;;;;;;62.07;5.23;;;;;;;;;;5076750;28;20440;-73
2024/04/08 05:16:41;;;;;;;58.93;4.60;;;;;;;;;;5076234;28;20511;-74
2024/04/08 05:19:07;;;;;;;61.10;4.93;;;;;;;;;;5076973;28;20467;-73
2024/04/08 05:21:34;;;;;;;61.27;4.43;;;;;;;;;;5076483;28;20864;-74
2024/04/08 05:24:01;;;;;;;60.87;5.03;;;;;;;;;;5076761;28;20483;-73
2024/04/08 05:26:29;;;;;;;61.07;5.00;;;;;;;;;;5076258;28;20563;-74
2024/04/08 05:28:55;;;;;;;59.70;5.00;;;;;;;;;;5076024;28;20464;-74
2024/04/08 05:31:22;;;;;;;63.30;5.37;;;;;;;;;;5075889;28;20986;-74
2024/04/08 05:33:49;;;;;;;62.20;4.70;;;;;;;;;;5075813;28;20543;-74
2024/04/08 05:36:16;;;;;;;63.93;4.40;;;;;;;;;;5075775;28;20456;-74
2024/04/08 05:38:43;;;;;;;61.60;4.30;;;;;;;;;;5066406;28;20551;-74
2024/04/08 05:41:11;;;;;;;61.67;5.10;;;;;;;;;;5075323;28;20448;-73
2024/04/08 05:43:37;;;;;;;76.33;6.90;;;;;;;;;;5075055;28;20850;-74
2024/04/08 05:46:04;;;;;;;62.53;4.50;;;;;;;;;;5075565;28;20444;-75
2024/04/08 05:48:30;;;;;;;61.90;4.83;;;;;;;;;;5074226;28;20814;-73
2024/04/08 05:50:58;;;;;;;62.17;4.90;;;;;;;;;;5074273;28;20484;-74
2024/04/08 05:53:24;;;;;;;60.97;4.87;;;;;;;;;;5075619;28;20440;-74
2024/04/08 05:55:51;;;;;;;65.53;5.30;;;;;;;;;;5074863;28;20506;-73
2024/04/08 05:58:19;;;;;;;59.90;5.03;;;;;;;;;;5076417;28;20471;-74
2024/04/08 06:00:46;;;;;;;62.00;5.00;;;;;;;;;;5067917;28;20802;-74
2024/04/08 06:03:12;;;;;;;64.67;5.53;;;;;;;;;;5075921;28;20931;-74
2024/04/08 06:05:42;;;;;;;61.83;5.00;;;;;;;;;;5075944;28;20525;-74
2024/04/08 06:08:08;;;;;;;60.13;4.50;;;;;;;;;;5076434;28;20555;-73
2024/04/08 06:10:41;;;;;;;60.37;4.80;;;;;;;;;;5076598;28;20451;-74
2024/04/08 06:13:08;;;;;;;61.23;4.00;;;;;;;;;;5070867;28;20445;-74
2024/04/08 06:15:36;;;;;;;59.40;4.67;;;;;;;;;;5059529;28;20444;-73
2024/04/08 06:18:02;;;;;;;62.37;5.03;;;;;;;;;;5059351;28;20599;-74
2024/04/08 06:20:29;;;;;;;62.00;4.40;;;;;;;;;;5059518;28;20507;-74
2024/04/08 06:22:55;;;;;;;62.87;5.27;;;;;;;;;;5059615;28;20881;-73
2024/04/08 06:25:22;;;;;;;63.80;5.03;;;;;;;;;;5058791;28;20455;-73
2024/04/08 06:27:49;;;;;;;62.67;4.77;;;;;;;;;;5058431;28;21045;-74
2024/04/08 06:30:16;;;;;;;64.17;4.53;;;;;;;;;;5058891;28;20445;-74
2024/04/08 06:32:48;;;;;;;60.27;5.00;;;;;;;;;;5057881;28;20531;-73
2024/04/08 06:35:15;;;;;;;58.73;4.00;;;;;;;;;;5058848;28;20547;-74
2024/04/08 06:37:42;;;;;;;64.10;5.60;;;;;;;;;;5058582;28;20441;-74
2024/04/08 06:40:10;;;;;;;60.40;5.70;;;;;;;;;;5058767;28;20481;-73
2024/04/08 06:42:36;;;;;;;59.67;4.67;;;;;;;;;;5058166;28;20506;-73
2024/04/08 06:45:03;;;;;;;63.93;4.30;;;;;;;;;;5058354;28;20483;-73
2024/04/08 06:47:29;;;;;;;61.50;4.50;;;;;;;;;;5058478;28;20453;-73
2024/04/08 06:49:58;;;;;;;61.40;4.33;;;;;;;;;;5058059;28;20464;-72
2024/04/08 06:52:24;;;;;;;67.00;5.80;;;;;;;;;;5058546;28;20488;-72
2024/04/08 06:54:51;;;;;;;63.33;4.40;;;;;;;;;;5055867;28;20448;-73
2024/04/08 06:57:18;;;;;;;64.63;4.70;;;;;;;;;;5054983;28;20448;-73
2024/04/08 06:59:45;;;;;;;61.93;4.30;;;;;;;;;;5054508;28;20483;-72
2024/04/08 07:02:11;;;;;;;65.40;4.13;;;;;;;;;;5054490;28;20445;-73
2024/04/08 07:04:38;;;;;;;67.63;4.13;;;;;;;;;;5053974;28;20484;-73
2024/04/08 07:07:06;;;;;;;64.60;4.90;;;;;;;;;;5058603;28;20482;-73
2024/04/08 07:09:33;;;;;;;62.23;4.23;;;;;;;;;;5074307;28;20476;-73
2024/04/08 07:11:59;;;;;;;63.00;4.20;;;;;;;;;;5074149;28;20451;-73
2024/04/08 07:14:27;;;;;;;62.43;4.80;;;;;;;;;;5073884;28;20928;-73
2024/04/08 07:16:53;;;;;;;63.70;4.80;;;;;;;;;;5074153;28;20546;-73
2024/04/08 07:19:21;;;;;;;60.90;4.30;;;;;;;;;;5074381;28;20468;-73
2024/04/08 07:21:47;;;;;;;67.40;4.73;;;;;;;;;;5069440;28;20531;-73
2024/04/08 07:24:16;;;;;;;59.60;4.07;;;;;;;;;;5073725;28;20491;-73
2024/04/08 07:26:42;;;;;;;67.33;4.10;;;;;;;;;;5074034;28;20448;-73
2024/04/08 07:29:09;;;;;;;64.80;3.73;;;;;;;;;;5074162;28;20869;-73
2024/04/08 07:31:35;;;;;;;67.90;4.10;;;;;;;;;;5073688;28;20444;-73
2024/04/08 07:34:03;;;;;;;62.17;3.90;;;;;;;;;;5074059;28;20481;-73
2024/04/08 07:36:29;;;;;;;61.60;4.10;;;;;;;;;;5074261;28;20505;-73
2024/04/08 07:38:56;;;;;;;66.07;4.57;;;;;;;;;;5073567;28;20754;-74
2024/04/08 07:41:24;;;;;;;63.10;3.70;;;;;;;;;;5073424;28;20452;-74
2024/04/08 07:43:51;;;;;;;62.67;4.50;;;;;;;;;;5074033;28;20476;-74
2024/04/08 07:46:17;;;;;;;67.47;4.20;;;;;;;;;;5073880;28;20962;-73
2024/04/08 07:50:20;;;;;;;59.97;3.70;;;;;;;;;;5581671;25;20561;-73
2024/04/08 07:52:46;;;;;;;62.57;4.20;;;;;;;;;;5581210;25;20997;-74
2024/04/08 07:55:15;;;;;;;59.60;4.37;;;;;;;;;;5581801;25;21054;-75
2024/04/08 07:57:41;;;;;;;63.20;4.47;;;;;;;;;;5576552;25;20466;-74
2024/04/08 08:00:12;;;;;;;64.90;4.53;;;;;;;;;;5533820;25;20471;-74
2024/04/08 08:02:38;;;;;;;63.77;5.27;;;;;;;;;;5543945;25;20464;-74
2024/04/08 08:05:07;;;;;;;67.03;4.90;;;;;;;;;;5544628;25;20881;-74
2024/04/08 08:07:36;;;;;;;66.23;4.30;;;;;;;;;;5544696;25;21065;-74
2024/04/08 08:10:05;;;;;;;62.47;3.93;;;;;;;;;;5535462;25;20478;-74
2024/04/08 08:12:34;;;;;;;61.13;3.87;;;;;;;;;;5506897;25;20465;-73
2024/04/08 08:15:04;;;;;;;62.60;5.00;;;;;;;;;;5507942;25;20473;-74
2024/04/08 08:17:33;;;;;;;60.87;4.10;;;;;;;;;;5508335;25;20507;-74
2024/04/08 08:20:04;;;;;;;67.03;4.67;;;;;;;;;;5507883;25;20480;-74
2024/04/08 08:22:33;;;;;;;59.60;3.90;;;;;;;;;;5508005;25;20817;-75
2024/04/08 08:25:05;;;;;;;67.10;4.70;;;;;;;;;;5508651;25;20481;-74
2024/04/08 08:27:34;;;;;;;64.80;4.80;;;;;;;;;;5508848;25;20461;-72
2024/04/08 08:30:03;;;;;;;62.60;3.53;;;;;;;;;;5509071;25;20591;-73
2024/04/08 08:32:31;;;;;;;62.53;4.30;;;;;;;;;;5508467;25;20569;-73
2024/04/08 08:35:00;;;;;;;63.67;4.00;;;;;;;;;;5508612;25;20516;-73
2024/04/08 08:37:26;;;;;;;63.80;5.00;;;;;;;;;;5508368;25;20477;-73
2024/04/08 08:39:55;;;;;;;59.87;4.00;;;;;;;;;;5509048;25;20540;-74
2024/04/08 08:42:25;;;;;;;59.20;3.97;;;;;;;;;;5508172;25;20457;-73
2024/04/08 08:44:55;;;;;;;67.80;3.70;;;;;;;;;;5508884;25;20571;-73
2024/04/08 08:47:21;;;;;;;63.20;3.87;;;;;;;;;;5509092;25;20957;-73
2024/04/08 08:49:52;;;;;;;61.33;4.80;;;;;;;;;;5509069;25;20473;-74
2024/04/08 08:52:19;;;;;;;62.67;4.23;;;;;;;;;;5508700;25;21065;-73
2024/04/08 08:54:47;;;;;;;62.10;3.80;;;;;;;;;;5508731;25;20461;-74
2024/04/08 08:57:14;;;;;;;58.60;3.37;;;;;;;;;;5509779;25;20473;-73
2024/04/08 08:59:45;;;;;;;61.83;3.23;;;;;;;;;;5541374;25;20517;-73
2024/04/08 09:02:15;;;;;;;62.40;3.60;;;;;;;;;;5519694;26;20591;-73
2024/04/08 09:04:42;;;;;;;62.57;3.10;;;;;;;;;;5493693;26;21001;-74
2024/04/08 09:07:11;;;;;;;58.07;3.07;;;;;;;;;;5494807;26;20523;-73
2024/04/08 09:09:37;;;;;;;63.03;4.07;;;;;;;;;;5494050;26;20466;-73
2024/04/08 09:12:06;;;;;;;63.77;4.27;;;;;;;;;;5493818;26;20518;-73
2024/04/08 09:14:32;;;;;;;61.27;4.20;;;;;;;;;;5493730;26;20519;-73
2024/04/08 09:17:13;;;;;;;64.00;3.27;;;;;;;;;;5494769;26;20474;-73
2024/04/08 09:19:40;;;;;;;60.90;3.60;;;;;;;;;;5493334;26;20465;-74
2024/04/08 09:22:10;;;;;;;64.97;4.40;;;;;;;;;;5493092;26;20471;-74
2024/04/08 09:24:36;;;;;;;64.23;3.57;;;;;;;;;;5492831;26;20579;-73
2024/04/08 09:27:05;;;;;;;60.40;3.67;;;;;;;;;;5492726;26;20542;-74
2024/04/08 09:29:31;;;;;;;59.50;3.53;;;;;;;;;;5491992;26;20526;-73
2024/04/08 09:32:00;;;;;;;61.67;4.20;;;;;;;;;;5491522;26;20533;-73
2024/04/08 09:34:29;;;;;;;60.80;3.17;;;;;;;;;;5504938;26;20615;-74
2024/04/08 09:36:58;;;;;;;60.10;3.30;;;;;;;;;;5528645;26;20469;-74
2024/04/08 09:39:25;;;;;;;61.60;3.80;;;;;;;;;;5525278;25;20490;-73
2024/04/08 09:41:56;;;;;;;61.70;3.17;;;;;;;;;;5517484;25;21102;-74
2024/04/08 09:44:24;;;;;;;60.97;3.17;;;;;;;;;;5515121;26;20875;-73
2024/04/08 09:46:53;;;;;;;61.67;4.07;;;;;;;;;;5492516;26;20480;-73
2024/04/08 09:49:20;;;;;;;58.17;3.10;;;;;;;;;;5520521;25;20483;-72
2024/04/08 09:51:52;;;;;;;60.50;3.40;;;;;;;;;;5521987;26;20527;-73
2024/04/08 09:54:20;;;;;;;58.27;2.90;;;;;;;;;;5519190;26;20466;-73
2024/04/08 09:56:51;;;;;;;59.30;3.40;;;;;;;;;;5525890;25;20477;-73
2024/04/08 09:59:19;;;;;;;58.27;3.23;;;;;;;;;;5525008;25;20477;-72
2024/04/08 10:01:49;;;;;;;65.07;4.00;;;;;;;;;;5525529;26;21057;-72
2024/04/08 10:04:20;;;;;;;61.77;3.47;;;;;;;;;;5499472;26;21071;-72
2024/04/08 10:06:52;;;;;;;62.43;3.90;;;;;;;;;;5508391;25;20474;-73
2024/04/08 10:09:20;;;;;;;61.40;3.33;;;;;;;;;;5514281;25;20484;-73
2024/04/08 10:11:49;;;;;;;60.03;3.10;;;;;;;;;;5487582;26;20469;-73
2024/04/08 10:14:16;;;;;;;60.67;3.33;;;;;;;;;;5489216;26;21064;-73
2024/04/08 10:16:44;;;;;;;60.77;3.30;;;;;;;;;;5502121;26;20572;-73
2024/04/08 10:19:11;;;;;;;58.50;2.90;;;;;;;;;;5515919;25;20495;-73
2024/04/08 10:21:41;;;;;;;63.63;3.23;;;;;;;;;;5489002;26;20479;-73
2024/04/08 10:24:27;;;;;;;61.87;3.23;;;;;;;;;;5489118;26;20809;-73
2024/04/08 10:27:01;;;;;;;57.60;2.60;;;;;;;;;;5489378;26;20472;-73
2024/04/08 10:29:27;;;;;;;60.33;3.30;;;;;;;;;;5488874;26;20466;-73
2024/04/08 10:31:55;;;;;;;58.47;3.10;;;;;;;;;;5505806;25;20476;-73
2024/04/08 10:34:22;;;;;;;58.27;3.13;;;;;;;;;;5510228;26;21008;-73
2024/04/08 10:36:50;;;;;;;58.93;2.93;;;;;;;;;;5526672;26;20573;-73
2024/04/08 10:39:26;;;;;;;69.07;3.20;;;;;;;;;;5525912;25;21136;-73
2024/04/08 10:41:55;;;;;;;60.23;3.07;;;;;;;;;;5513233;25;20505;-72
2024/04/08 10:44:21;;;;;;;58.67;2.73;;;;;;;;;;5513580;26;20486;-73
2024/04/08 10:46:49;;;;;;;59.50;2.90;;;;;;;;;;5523297;26;20540;-73
2024/04/08 10:49:16;;;;;;;62.60;3.80;;;;;;;;;;5525293;25;20528;-74
2024/04/08 10:51:48;;;;;;;61.80;3.50;;;;;;;;;;5507198;26;20470;-73
2024/04/08 10:54:14;;;;;;;59.37;3.37;;;;;;;;;;5488683;26;20578;-72
2024/04/08 10:56:45;;;;;;;62.20;3.07;;;;;;;;;;5488801;26;20485;-73
2024/04/08 10:59:12;;;;;;;62.13;3.20;;;;;;;;;;5507126;26;20590;-73
2024/04/08 11:01:41;;;;;;;56.50;3.07;;;;;;;;;;5509158;26;20533;-73
2024/04/08 11:04:08;;;;;;;65.97;3.77;;;;;;;;;;5489008;26;20490;-73
2024/04/08 11:06:37;;;;;;;60.10;3.50;;;;;;;;;;5489409;26;20473;-74
2024/04/08 11:09:04;;;;;;;57.90;3.30;;;;;;;;;;5489219;26;20534;-73
2024/04/08 11:11:34;;;;;;;58.57;3.27;;;;;;;;;;5488350;26;20482;-74
2024/04/08 11:14:03;;;;;;;61.60;2.93;;;;;;;;;;5488722;26;20977;-74
2024/04/08 11:16:32;;;;;;;57.40;2.90;;;;;;;;;;5497332;26;20519;-73
2024/04/08 11:18:58;;;;;;;58.10;3.50;;;;;;;;;;5518865;25;20485;-73
2024/04/08 11:21:27;;;;;;;58.13;3.33;;;;;;;;;;5488089;26;20478;-74
2024/04/08 11:23:53;;;;;;;61.63;3.53;;;;;;;;;;5486963;26;20527;-73
2024/04/08 11:26:22;;;;;;;59.67;3.17;;;;;;;;;;5488194;26;20477;-72
2024/04/08 11:28:48;;;;;;;60.53;3.30;;;;;;;;;;5488315;26;20874;-73
2024/04/08 11:31:20;;;;;;;59.93;3.50;;;;;;;;;;5491589;26;22502;-73
2024/04/08 11:33:46;;;;;;;58.23;2.87;;;;;;;;;;5522150;25;20472;-72
2024/04/08 11:36:15;;;;;;;60.63;3.10;;;;;;;;;;5531926;25;20476;-72
2024/04/08 11:38:41;;;;;;;58.37;3.30;;;;;;;;;;5522210;25;20489;-73
2024/04/08 11:41:10;;;;;;;60.33;3.40;;;;;;;;;;5522790;26;20536;-72
2024/04/08 11:43:36;;;;;;;62.03;3.70;;;;;;;;;;5508388;26;20502;-72
2024/04/08 11:46:05;;;;;;;62.67;3.53;;;;;;;;;;5486774;26;20902;-71
2024/04/08 11:48:34;;;;;;;58.30;3.63;;;;;;;;;;5486533;26;20985;-72
2024/04/08 11:51:03;;;;;;;59.10;3.00;;;;;;;;;;5486382;26;20482;-73
2024/04/08 11:53:30;;;;;;;56.87;3.00;;;;;;;;;;5486564;26;21119;-73
2024/04/08 11:55:58;;;;;;;59.63;3.03;;;;;;;;;;5486450;26;20474;-73
2024/04/08 11:58:25;;;;;;;60.87;2.80;;;;;;;;;;5487211;26;20482;-73
2024/04/08 12:00:54;;;;;;;61.20;3.17;;;;;;;;;;5487859;26;20513;-73
2024/04/08 12:03:20;;;;;;;62.83;3.27;;;;;;;;;;5494680;26;20490;-76
2024/04/08 12:05:52;;;;;;;59.20;3.80;;;;;;;;;;5536032;25;20472;-76
2024/04/08 12:08:18;;;;;;;66.60;3.50;;;;;;;;;;5528289;25;20480;-73
2024/04/08 12:10:46;;;;;;;56.73;2.80;;;;;;;;;;5524791;26;20996;-72
2024/04/08 12:13:17;;;;;;;57.80;3.17;;;;;;;;;;5524920;26;20555;-73
2024/04/08 12:15:46;;;;;;;65.47;3.43;;;;;;;;;;5525035;26;20476;-73
2024/04/08 12:18:12;;;;;;;57.00;3.40;;;;;;;;;;5525023;25;20473;-72
2024/04/08 12:20:41;;;;;;;62.60;3.10;;;;;;;;;;5523999;26;20465;-73
2024/04/08 12:23:12;;;;;;;60.00;3.10;;;;;;;;;;5524659;26;20520;-73
2024/04/08 12:25:41;;;;;;;57.60;2.50;;;;;;;;;;5524900;26;20889;-73
2024/04/08 12:28:08;;;;;;;59.03;3.40;;;;;;;;;;5524646;25;20536;-73
2024/04/08 12:30:41;;;;;;;60.77;3.77;;;;;;;;;;5524000;26;20472;-73
2024/04/08 12:33:07;;;;;;;59.70;3.30;;;;;;;;;;5524633;26;21104;-73
2024/04/08 12:35:36;;;;;;;66.23;3.43;;;;;;;;;;5525562;26;20582;-73
2024/04/08 12:38:06;;;;;;;62.10;3.70;;;;;;;;;;5528484;25;20529;-73
2024/04/08 12:40:38;;;;;;;58.67;3.20;;;;;;;;;;5527640;26;20525;-73
2024/04/08 12:43:04;;;;;;;60.30;2.97;;;;;;;;;;5528468;26;20465;-73
2024/04/08 12:45:33;;;;;;;59.00;3.90;;;;;;;;;;5528106;26;20472;-73
2024/04/08 12:47:59;;;;;;;60.17;3.10;;;;;;;;;;5527651;25;20484;-73
2024/04/08 12:50:28;;;;;;;57.47;2.90;;;;;;;;;;5527376;26;20893;-73
2024/04/08 12:52:54;;;;;;;60.20;3.27;;;;;;;;;;5528135;26;20894;-73
2024/04/08 12:55:23;;;;;;;59.80;3.53;;;;;;;;;;5525321;26;20480;-73
2024/04/08 12:57:52;;;;;;;60.30;2.97;;;;;;;;;;5513954;25;20487;-73
2024/04/08 13:00:21;;;;;;;63.30;3.63;;;;;;;;;;5528107;26;20461;-73
2024/04/08 13:02:47;;;;;;;59.87;3.50;;;;;;;;;;5527070;26;20457;-73
2024/04/08 13:05:16;;;;;;;59.67;3.90;;;;;;;;;;5527506;25;20559;-73
2024/04/08 13:07:43;;;;;;;60.33;3.13;;;;;;;;;;5518690;25;20470;-72
2024/04/08 13:10:11;;;;;;;59.67;3.70;;;;;;;;;;5504393;26;20513;-73
2024/04/08 13:12:38;;;;;;;64.13;4.27;;;;;;;;;;5493830;26;20462;-73
2024/04/08 13:15:11;;;;;;;63.10;4.13;;;;;;;;;;5512302;26;20465;-73
2024/04/08 13:17:37;;;;;;;60.17;4.40;;;;;;;;;;5526216;25;21192;-73
2024/04/08 13:20:06;;;;;;;56.23;2.73;;;;;;;;;;5526624;25;20480;-72
2024/04/08 13:22:32;;;;;;;59.67;3.13;;;;;;;;;;5511525;26;20479;-73
2024/04/08 13:25:01;;;;;;;60.43;3.47;;;;;;;;;;5522603;26;20906;-73
2024/04/08 13:27:27;;;;;;;67.57;4.77;;;;;;;;;;5516783;25;20836;-73
2024/04/08 13:29:56;;;;;;;63.17;3.40;;;;;;;;;;5526862;25;20472;-72
2024/04/08 13:32:24;;;;;;;63.43;4.33;;;;;;;;;;5517913;25;20523;-72
2024/04/08 13:34:53;;;;;;;64.43;4.37;;;;;;;;;;5524196;25;20469;-73
2024/04/08 13:37:19;;;;;;;59.67;3.00;;;;;;;;;;5510762;26;21012;-73
2024/04/08 13:39:48;;;;;;;65.23;4.10;;;;;;;;;;5511467;25;20469;-72
2024/04/08 13:42:14;;;;;;;59.90;3.93;;;;;;;;;;5517930;26;20473;-73
2024/04/08 13:44:46;;;;;;;65.83;3.73;;;;;;;;;;5489806;26;20470;-72
2024/04/08 13:47:12;;;;;;;64.03;4.10;;;;;;;;;;5508730;25;20581;-73
2024/04/08 13:49:43;;;;;;;76.20;5.37;;;;;;;;;;5526435;25;21008;-72
2024/04/08 13:52:10;;;;;;;70.77;4.83;;;;;;;;;;5511364;26;20484;-72
2024/04/08 13:54:40;;;;;;;71.77;5.10;;;;;;;;;;5525729;26;20804;-72
2024/04/08 13:57:08;;;;;;;69.07;4.90;;;;;;;;;;5526927;26;20529;-72
2024/04/08 13:59:37;;;;;;;72.23;6.47;;;;;;;;;;5526479;25;20468;-72
2024/04/08 14:02:03;;;;;;;74.30;5.90;;;;;;;;;;5526015;26;20473;-71
2024/04/08 14:04:32;;;;;;;75.03;6.80;;;;;;;;;;5526608;26;20477;-71
2024/04/08 14:07:01;;;;;;;79.03;5.57;;;;;;;;;;5526420;26;20464;-71
2024/04/08 14:09:30;;;;;;;78.00;6.67;;;;;;;;;;5525922;25;20476;-71
2024/04/08 14:11:56;;;;;;;77.87;6.23;;;;;;;;;;5525539;26;20469;-70
2024/04/08 14:14:25;;;;;;;69.80;4.83;;;;;;;;;;5525558;26;21034;-71
2024/04/08 14:16:53;;;;;;;69.07;4.50;;;;;;;;;;5525719;26;20583;-71
2024/04/08 14:19:20;;;;;;;73.03;5.67;;;;;;;;;;5525535;25;20462;-71
2024/04/08 14:21:48;;;;;;;79.30;6.77;;;;;;;;;;5525063;26;20588;-71
2024/04/08 14:24:17;;;;;;;76.70;6.73;;;;;;;;;;5525338;26;21083;-71
2024/04/08 14:26:46;;;;;;;72.63;6.40;;;;;;;;;;5525325;26;20465;-71
2024/04/08 14:29:12;;;;;;;76.80;6.10;;;;;;;;;;5525249;25;20853;-71
2024/04/08 14:31:41;;;;;;;70.80;5.40;;;;;;;;;;5524749;26;21119;-71
2024/04/08 14:34:07;;;;;;;71.27;5.67;;;;;;;;;;5524805;26;20579;-72